sensor_id;sensor_type;location;lat;lon;timestamp;P1;durP1;ratioP1;P2;durP2;ratioP2
8462;SDS011;4268;52.506;13.462;2022-08-03T00:01:27;5.33;;;3.70;;
8462;SDS011;4268;52.506;13.462;2022-08-03T00:03:53;5.13;;;3.80;;
8462;SDS011;4268;52.506;13.462;2022-08-03T00:06:19;5.77;;;3.70;;
8462;SDS011;4268;52.506;13.462;2022-08-03T00:08:44;4.80;;;3.83;;
8462;SDS011;4268;52.506;13.462;2022-08-03T00:11:09;3.50;;;3.20;;
8462;SDS011;4268;52.506;13.462;2022-08-03T00:13:35;3.70;;;3.40;;
8462;SDS011;4268;52.506;13.462;2022-08-03T00:16:00;3.77;;;3.43;;
8462;SDS011;4268;52.506;13.462;2022-08-03T00:18:26;4.00;;;3.60;;
8462;SDS011;4268;52.506;13.462;2022-08-03T00:20:52;4.37;;;3.63;;
8462;SDS011;4268;52.506;13.462;2022-08-03T00:23:17;5.23;;;3.63;;
8462;SDS011;4268;52.506;13.462;2022-08-03T00:25:43;4.90;;;3.70;;
8462;SDS011;4268;52.506;13.462;2022-08-03T00:28:08;5.10;;;3.57;;
8462;SDS011;4268;52.506;13.462;2022-08-03T00:30:34;5.23;;;3.90;;
8462;SDS011;4268;52.506;13.462;2022-08-03T00:33:00;3.83;;;3.53;;
8462;SDS011;4268;52.506;13.462;2022-08-03T00:35:26;4.00;;;3.60;;
8462;SDS011;4268;52.506;13.462;2022-08-03T00:37:52;4.67;;;4.03;;
8462;SDS011;4268;52.506;13.462;2022-08-03T00:40:18;3.77;;;3.43;;
8462;SDS011;4268;52.506;13.462;2022-08-03T00:42:48;5.33;;;3.70;;
8462;SDS011;4268;52.506;13.462;2022-08-03T00:45:17;4.20;;;3.80;;
8462;SDS011;4268;52.506;13.462;2022-08-03T00:47:44;6.37;;;3.77;;
8462;SDS011;4268;52.506;13.462;2022-08-03T00:50:10;4.33;;;3.80;;
8462;SDS011;4268;52.506;13.462;2022-08-03T00:52:35;3.90;;;3.60;;
8462;SDS011;4268;52.506;13.462;2022-08-03T00:55:01;4.03;;;3.70;;
8462;SDS011;4268;52.506;13.462;2022-08-03T00:57:28;4.87;;;4.30;;
8462;SDS011;4268;52.506;13.462;2022-08-03T00:59:55;4.40;;;4.00;;
8462;SDS011;4268;52.506;13.462;2022-08-03T01:02:21;5.57;;;4.10;;
8462;SDS011;4268;52.506;13.462;2022-08-03T01:04:46;6.00;;;3.73;;
8462;SDS011;4268;52.506;13.462;2022-08-03T01:09:54;4.13;;;3.60;;
8462;SDS011;4268;52.506;13.462;2022-08-03T01:12:31;4.43;;;4.03;;
8462;SDS011;4268;52.506;13.462;2022-08-03T01:15:09;4.33;;;3.93;;
8462;SDS011;4268;52.506;13.462;2022-08-03T01:17:58;4.83;;;3.93;;
8462;SDS011;4268;52.506;13.462;2022-08-03T01:20:54;4.20;;;3.90;;
8462;SDS011;4268;52.506;13.462;2022-08-03T01:23:36;4.53;;;3.90;;
8462;SDS011;4268;52.506;13.462;2022-08-03T01:26:23;4.90;;;4.17;;
8462;SDS011;4268;52.506;13.462;2022-08-03T01:32:07;4.17;;;3.77;;
8462;SDS011;4268;52.506;13.462;2022-08-03T01:34:40;4.43;;;4.03;;
8462;SDS011;4268;52.506;13.462;2022-08-03T01:37:10;6.17;;;4.03;;
8462;SDS011;4268;52.506;13.462;2022-08-03T01:39:40;5.07;;;4.57;;
8462;SDS011;4268;52.506;13.462;2022-08-03T01:42:08;4.20;;;3.90;;
8462;SDS011;4268;52.506;13.462;2022-08-03T01:44:39;4.43;;;3.90;;
8462;SDS011;4268;52.506;13.462;2022-08-03T01:47:06;4.33;;;4.00;;
8462;SDS011;4268;52.506;13.462;2022-08-03T01:49:38;4.60;;;4.20;;
8462;SDS011;4268;52.506;13.462;2022-08-03T01:52:07;4.50;;;4.10;;
8462;SDS011;4268;52.506;13.462;2022-08-03T01:54:34;4.10;;;3.80;;
8462;SDS011;4268;52.506;13.462;2022-08-03T01:57:01;5.33;;;3.90;;
8462;SDS011;4268;52.506;13.462;2022-08-03T01:59:27;4.40;;;4.00;;
8462;SDS011;4268;52.506;13.462;2022-08-03T02:01:54;4.83;;;4.07;;
8462;SDS011;4268;52.506;13.462;2022-08-03T02:04:21;4.23;;;3.80;;
8462;SDS011;4268;52.506;13.462;2022-08-03T02:06:48;4.70;;;4.27;;
8462;SDS011;4268;52.506;13.462;2022-08-03T02:09:15;4.20;;;3.80;;
8462;SDS011;4268;52.506;13.462;2022-08-03T02:11:43;4.30;;;3.90;;
8462;SDS011;4268;52.506;13.462;2022-08-03T02:14:10;4.27;;;3.90;;
8462;SDS011;4268;52.506;13.462;2022-08-03T02:16:38;4.40;;;4.00;;
8462;SDS011;4268;52.506;13.462;2022-08-03T02:19:05;4.70;;;4.30;;
8462;SDS011;4268;52.506;13.462;2022-08-03T02:21:32;4.40;;;4.00;;
8462;SDS011;4268;52.506;13.462;2022-08-03T02:24:02;5.87;;;4.03;;
8462;SDS011;4268;52.506;13.462;2022-08-03T02:26:28;4.53;;;4.13;;
8462;SDS011;4268;52.506;13.462;2022-08-03T02:28:55;4.90;;;4.40;;
8462;SDS011;4268;52.506;13.462;2022-08-03T02:31:27;4.50;;;4.00;;
8462;SDS011;4268;52.506;13.462;2022-08-03T02:34:01;4.93;;;3.93;;
8462;SDS011;4268;52.506;13.462;2022-08-03T02:36:30;5.07;;;3.97;;
8462;SDS011;4268;52.506;13.462;2022-08-03T02:39:01;4.17;;;3.77;;
8462;SDS011;4268;52.506;13.462;2022-08-03T02:41:34;3.90;;;3.60;;
8462;SDS011;4268;52.506;13.462;2022-08-03T02:44:06;4.50;;;4.10;;
8462;SDS011;4268;52.506;13.462;2022-08-03T02:46:36;5.37;;;4.00;;
8462;SDS011;4268;52.506;13.462;2022-08-03T02:49:03;4.67;;;4.27;;
8462;SDS011;4268;52.506;13.462;2022-08-03T02:51:31;4.93;;;4.10;;
8462;SDS011;4268;52.506;13.462;2022-08-03T02:53:59;4.53;;;4.03;;
8462;SDS011;4268;52.506;13.462;2022-08-03T02:56:27;6.37;;;4.10;;
8462;SDS011;4268;52.506;13.462;2022-08-03T02:58:52;4.40;;;4.00;;
8462;SDS011;4268;52.506;13.462;2022-08-03T03:01:23;4.20;;;3.90;;
8462;SDS011;4268;52.506;13.462;2022-08-03T03:03:50;3.90;;;3.60;;
8462;SDS011;4268;52.506;13.462;2022-08-03T03:06:17;3.90;;;3.60;;
8462;SDS011;4268;52.506;13.462;2022-08-03T03:08:43;5.73;;;3.80;;
8462;SDS011;4268;52.506;13.462;2022-08-03T03:11:10;4.10;;;3.77;;
8462;SDS011;4268;52.506;13.462;2022-08-03T03:13:38;4.10;;;3.80;;
8462;SDS011;4268;52.506;13.462;2022-08-03T03:16:06;4.33;;;3.97;;
8462;SDS011;4268;52.506;13.462;2022-08-03T03:18:33;4.40;;;4.00;;
8462;SDS011;4268;52.506;13.462;2022-08-03T03:20:59;4.60;;;4.20;;
8462;SDS011;4268;52.506;13.462;2022-08-03T03:23:26;5.80;;;4.00;;
8462;SDS011;4268;52.506;13.462;2022-08-03T03:25:53;4.10;;;3.80;;
8462;SDS011;4268;52.506;13.462;2022-08-03T03:28:20;4.53;;;4.07;;
8462;SDS011;4268;52.506;13.462;2022-08-03T03:30:47;5.53;;;3.90;;
8462;SDS011;4268;52.506;13.462;2022-08-03T03:33:13;3.93;;;3.60;;
8462;SDS011;4268;52.506;13.462;2022-08-03T03:35:39;4.77;;;4.00;;
8462;SDS011;4268;52.506;13.462;2022-08-03T03:38:07;4.17;;;3.80;;
8462;SDS011;4268;52.506;13.462;2022-08-03T03:40:37;4.67;;;4.20;;
8462;SDS011;4268;52.506;13.462;2022-08-03T03:43:06;4.17;;;3.87;;
8462;SDS011;4268;52.506;13.462;2022-08-03T03:45:33;4.47;;;3.70;;
8462;SDS011;4268;52.506;13.462;2022-08-03T03:48:00;5.23;;;3.90;;
8462;SDS011;4268;52.506;13.462;2022-08-03T03:50:30;4.37;;;3.97;;
8462;SDS011;4268;52.506;13.462;2022-08-03T03:52:57;3.90;;;3.60;;
8462;SDS011;4268;52.506;13.462;2022-08-03T03:55:23;3.77;;;3.57;;
8462;SDS011;4268;52.506;13.462;2022-08-03T03:57:48;5.70;;;4.80;;
8462;SDS011;4268;52.506;13.462;2022-08-03T04:00:15;4.50;;;4.10;;
8462;SDS011;4268;52.506;13.462;2022-08-03T04:02:41;6.67;;;4.23;;
8462;SDS011;4268;52.506;13.462;2022-08-03T04:05:07;5.37;;;4.10;;
8462;SDS011;4268;52.506;13.462;2022-08-03T04:07:56;5.90;;;4.60;;
8462;SDS011;4268;52.506;13.462;2022-08-03T04:10:55;4.13;;;3.83;;
8462;SDS011;4268;52.506;13.462;2022-08-03T04:13:28;4.80;;;4.30;;
8462;SDS011;4268;52.506;13.462;2022-08-03T04:15:57;4.30;;;4.00;;
8462;SDS011;4268;52.506;13.462;2022-08-03T04:18:23;4.43;;;4.03;;
8462;SDS011;4268;52.506;13.462;2022-08-03T04:20:52;4.20;;;3.90;;
8462;SDS011;4268;52.506;13.462;2022-08-03T04:23:19;4.60;;;4.20;;
8462;SDS011;4268;52.506;13.462;2022-08-03T04:25:48;4.67;;;4.17;;
8462;SDS011;4268;52.506;13.462;2022-08-03T04:28:15;5.00;;;4.50;;
8462;SDS011;4268;52.506;13.462;2022-08-03T04:30:41;5.53;;;4.33;;
8462;SDS011;4268;52.506;13.462;2022-08-03T04:33:12;4.90;;;4.23;;
8462;SDS011;4268;52.506;13.462;2022-08-03T04:35:38;4.47;;;4.10;;
8462;SDS011;4268;52.506;13.462;2022-08-03T04:38:07;4.27;;;3.97;;
8462;SDS011;4268;52.506;13.462;2022-08-03T04:40:36;5.40;;;4.30;;
8462;SDS011;4268;52.506;13.462;2022-08-03T04:43:05;5.30;;;4.33;;
8462;SDS011;4268;52.506;13.462;2022-08-03T04:45:33;4.83;;;4.23;;
8462;SDS011;4268;52.506;13.462;2022-08-03T04:48:00;5.00;;;4.50;;
8462;SDS011;4268;52.506;13.462;2022-08-03T04:50:26;4.73;;;4.27;;
8462;SDS011;4268;52.506;13.462;2022-08-03T04:52:52;6.83;;;4.63;;
8462;SDS011;4268;52.506;13.462;2022-08-03T04:55:31;4.67;;;4.10;;
8462;SDS011;4268;52.506;13.462;2022-08-03T04:57:58;5.20;;;4.67;;
8462;SDS011;4268;52.506;13.462;2022-08-03T05:00:24;5.70;;;4.17;;
8462;SDS011;4268;52.506;13.462;2022-08-03T05:02:50;6.00;;;4.50;;
8462;SDS011;4268;52.506;13.462;2022-08-03T05:05:17;6.37;;;4.57;;
8462;SDS011;4268;52.506;13.462;2022-08-03T05:10:13;5.73;;;4.80;;
8462;SDS011;4268;52.506;13.462;2022-08-03T05:12:38;6.13;;;4.60;;
8462;SDS011;4268;52.506;13.462;2022-08-03T05:15:05;6.00;;;4.67;;
8462;SDS011;4268;52.506;13.462;2022-08-03T05:17:31;9.20;;;4.80;;
8462;SDS011;4268;52.506;13.462;2022-08-03T05:19:58;4.90;;;4.50;;
8462;SDS011;4268;52.506;13.462;2022-08-03T05:22:23;6.27;;;4.70;;
8462;SDS011;4268;52.506;13.462;2022-08-03T05:24:49;5.80;;;4.50;;
8462;SDS011;4268;52.506;13.462;2022-08-03T05:27:15;6.83;;;4.67;;
8462;SDS011;4268;52.506;13.462;2022-08-03T05:29:46;5.47;;;4.30;;
8462;SDS011;4268;52.506;13.462;2022-08-03T05:32:14;5.60;;;4.50;;
8462;SDS011;4268;52.506;13.462;2022-08-03T05:34:40;7.07;;;4.80;;
8462;SDS011;4268;52.506;13.462;2022-08-03T05:37:06;6.10;;;4.10;;
8462;SDS011;4268;52.506;13.462;2022-08-03T05:39:32;5.00;;;4.47;;
8462;SDS011;4268;52.506;13.462;2022-08-03T05:41:57;5.50;;;4.20;;
8462;SDS011;4268;52.506;13.462;2022-08-03T05:44:23;6.60;;;4.00;;
8462;SDS011;4268;52.506;13.462;2022-08-03T05:46:49;6.83;;;4.30;;
8462;SDS011;4268;52.506;13.462;2022-08-03T05:49:15;6.27;;;4.53;;
8462;SDS011;4268;52.506;13.462;2022-08-03T05:51:41;5.90;;;4.50;;
8462;SDS011;4268;52.506;13.462;2022-08-03T05:54:06;6.23;;;4.43;;
8462;SDS011;4268;52.506;13.462;2022-08-03T05:56:32;11.77;;;4.33;;
8462;SDS011;4268;52.506;13.462;2022-08-03T05:58:57;5.33;;;4.23;;
8462;SDS011;4268;52.506;13.462;2022-08-03T06:01:23;5.07;;;4.17;;
8462;SDS011;4268;52.506;13.462;2022-08-03T06:03:48;5.87;;;4.17;;
8462;SDS011;4268;52.506;13.462;2022-08-03T06:06:15;5.43;;;4.33;;
8462;SDS011;4268;52.506;13.462;2022-08-03T06:08:41;5.67;;;4.67;;
8462;SDS011;4268;52.506;13.462;2022-08-03T06:11:08;4.40;;;4.00;;
8462;SDS011;4268;52.506;13.462;2022-08-03T06:13:33;8.33;;;4.70;;
8462;SDS011;4268;52.506;13.462;2022-08-03T06:15:59;6.03;;;4.40;;
8462;SDS011;4268;52.506;13.462;2022-08-03T06:18:25;8.33;;;4.27;;
8462;SDS011;4268;52.506;13.462;2022-08-03T06:20:51;5.17;;;3.90;;
8462;SDS011;4268;52.506;13.462;2022-08-03T06:23:17;4.57;;;4.07;;
8462;SDS011;4268;52.506;13.462;2022-08-03T06:25:42;7.27;;;4.30;;
8462;SDS011;4268;52.506;13.462;2022-08-03T06:28:08;6.30;;;3.90;;
8462;SDS011;4268;52.506;13.462;2022-08-03T06:30:33;8.40;;;4.40;;
8462;SDS011;4268;52.506;13.462;2022-08-03T06:33:00;8.68;;;4.10;;
8462;SDS011;4268;52.506;13.462;2022-08-03T06:35:25;8.07;;;3.97;;
8462;SDS011;4268;52.506;13.462;2022-08-03T06:37:52;11.32;;;3.97;;
8462;SDS011;4268;52.506;13.462;2022-08-03T06:40:18;10.40;;;4.13;;
8462;SDS011;4268;52.506;13.462;2022-08-03T06:42:56;10.20;;;4.10;;
8462;SDS011;4268;52.506;13.462;2022-08-03T06:45:22;10.40;;;3.90;;
8462;SDS011;4268;52.506;13.462;2022-08-03T06:47:58;5.50;;;3.53;;
8462;SDS011;4268;52.506;13.462;2022-08-03T06:50:25;3.40;;;3.10;;
8462;SDS011;4268;52.506;13.462;2022-08-03T06:52:51;6.00;;;3.72;;
8462;SDS011;4268;52.506;13.462;2022-08-03T06:55:16;3.50;;;3.20;;
8462;SDS011;4268;52.506;13.462;2022-08-03T06:57:42;4.93;;;3.03;;
8462;SDS011;4268;52.506;13.462;2022-08-03T07:00:08;5.60;;;3.78;;
8462;SDS011;4268;52.506;13.462;2022-08-03T07:02:35;4.68;;;3.90;;
8462;SDS011;4268;52.506;13.462;2022-08-03T07:05:01;5.40;;;3.67;;
8462;SDS011;4268;52.506;13.462;2022-08-03T07:07:26;4.35;;;3.67;;
8462;SDS011;4268;52.506;13.462;2022-08-03T07:09:52;7.97;;;3.88;;
8462;SDS011;4268;52.506;13.462;2022-08-03T07:12:17;5.05;;;3.53;;
8462;SDS011;4268;52.506;13.462;2022-08-03T07:14:43;5.60;;;3.50;;
8462;SDS011;4268;52.506;13.462;2022-08-03T07:17:08;5.50;;;3.00;;
8462;SDS011;4268;52.506;13.462;2022-08-03T07:19:34;6.72;;;3.05;;
8462;SDS011;4268;52.506;13.462;2022-08-03T07:21:59;4.72;;;3.40;;
8462;SDS011;4268;52.506;13.462;2022-08-03T07:24:27;5.07;;;3.00;;
8462;SDS011;4268;52.506;13.462;2022-08-03T07:26:53;4.25;;;3.30;;
8462;SDS011;4268;52.506;13.462;2022-08-03T07:29:18;4.47;;;2.92;;
8462;SDS011;4268;52.506;13.462;2022-08-03T07:31:44;6.65;;;3.10;;
8462;SDS011;4268;52.506;13.462;2022-08-03T07:34:09;4.93;;;2.92;;
8462;SDS011;4268;52.506;13.462;2022-08-03T07:36:35;3.53;;;3.05;;
8462;SDS011;4268;52.506;13.462;2022-08-03T07:39:01;5.93;;;3.05;;
8462;SDS011;4268;52.506;13.462;2022-08-03T07:41:27;5.28;;;2.92;;
8462;SDS011;4268;52.506;13.462;2022-08-03T07:43:52;4.50;;;2.95;;
8462;SDS011;4268;52.506;13.462;2022-08-03T07:46:18;4.45;;;3.50;;
8462;SDS011;4268;52.506;13.462;2022-08-03T07:48:43;5.18;;;2.90;;
8462;SDS011;4268;52.506;13.462;2022-08-03T07:51:09;4.00;;;2.53;;
8462;SDS011;4268;52.506;13.462;2022-08-03T07:53:34;3.03;;;2.70;;
8462;SDS011;4268;52.506;13.462;2022-08-03T07:56:00;3.60;;;2.70;;
8462;SDS011;4268;52.506;13.462;2022-08-03T07:58:25;3.60;;;2.90;;
8462;SDS011;4268;52.506;13.462;2022-08-03T08:00:51;3.30;;;2.58;;
8462;SDS011;4268;52.506;13.462;2022-08-03T08:03:17;2.85;;;2.65;;
8462;SDS011;4268;52.506;13.462;2022-08-03T08:05:43;3.25;;;2.47;;
8462;SDS011;4268;52.506;13.462;2022-08-03T08:08:09;3.28;;;2.47;;
8462;SDS011;4268;52.506;13.462;2022-08-03T08:10:34;2.80;;;2.60;;
8462;SDS011;4268;52.506;13.462;2022-08-03T08:13:00;3.25;;;2.60;;
8462;SDS011;4268;52.506;13.462;2022-08-03T08:15:27;2.90;;;2.70;;
8462;SDS011;4268;52.506;13.462;2022-08-03T08:17:53;3.65;;;2.78;;
8462;SDS011;4268;52.506;13.462;2022-08-03T08:20:21;2.80;;;2.60;;
8462;SDS011;4268;52.506;13.462;2022-08-03T08:22:48;4.07;;;2.60;;
8462;SDS011;4268;52.506;13.462;2022-08-03T08:25:14;2.95;;;2.65;;
8462;SDS011;4268;52.506;13.462;2022-08-03T08:27:40;2.60;;;2.50;;
8462;SDS011;4268;52.506;13.462;2022-08-03T08:30:07;3.92;;;2.63;;
8462;SDS011;4268;52.506;13.462;2022-08-03T08:32:33;3.85;;;2.70;;
8462;SDS011;4268;52.506;13.462;2022-08-03T08:35:01;2.80;;;2.42;;
8462;SDS011;4268;52.506;13.462;2022-08-03T08:37:27;2.80;;;2.60;;
8462;SDS011;4268;52.506;13.462;2022-08-03T08:39:54;3.63;;;2.60;;
8462;SDS011;4268;52.506;13.462;2022-08-03T08:42:20;2.88;;;2.53;;
8462;SDS011;4268;52.506;13.462;2022-08-03T08:44:45;2.50;;;2.40;;
8462;SDS011;4268;52.506;13.462;2022-08-03T08:47:11;2.42;;;2.33;;
8462;SDS011;4268;52.506;13.462;2022-08-03T08:49:38;2.45;;;2.28;;
8462;SDS011;4268;52.506;13.462;2022-08-03T08:52:05;2.53;;;2.30;;
8462;SDS011;4268;52.506;13.462;2022-08-03T08:54:32;2.60;;;2.40;;
8462;SDS011;4268;52.506;13.462;2022-08-03T08:57:01;2.13;;;2.03;;
8462;SDS011;4268;52.506;13.462;2022-08-03T08:59:30;2.35;;;2.15;;
8462;SDS011;4268;52.506;13.462;2022-08-03T09:01:58;2.35;;;2.25;;
8462;SDS011;4268;52.506;13.462;2022-08-03T09:04:24;2.55;;;2.35;;
8462;SDS011;4268;52.506;13.462;2022-08-03T09:06:51;2.50;;;2.30;;
8462;SDS011;4268;52.506;13.462;2022-08-03T09:09:16;3.45;;;2.13;;
8462;SDS011;4268;52.506;13.462;2022-08-03T09:11:42;3.78;;;3.45;;
8462;SDS011;4268;52.506;13.462;2022-08-03T09:14:08;2.72;;;2.03;;
8462;SDS011;4268;52.506;13.462;2022-08-03T09:16:34;2.45;;;2.25;;
8462;SDS011;4268;52.506;13.462;2022-08-03T09:19:10;2.70;;;2.50;;
8462;SDS011;4268;52.506;13.462;2022-08-03T09:21:39;2.72;;;2.22;;
8462;SDS011;4268;52.506;13.462;2022-08-03T09:24:05;3.00;;;2.17;;
8462;SDS011;4268;52.506;13.462;2022-08-03T09:26:31;2.38;;;2.20;;
8462;SDS011;4268;52.506;13.462;2022-08-03T09:29:01;2.45;;;2.28;;
8462;SDS011;4268;52.506;13.462;2022-08-03T09:31:40;2.50;;;2.40;;
8462;SDS011;4268;52.506;13.462;2022-08-03T09:34:09;5.00;;;2.60;;
8462;SDS011;4268;52.506;13.462;2022-08-03T09:36:39;2.63;;;2.20;;
8462;SDS011;4268;52.506;13.462;2022-08-03T09:39:15;2.60;;;2.40;;
8462;SDS011;4268;52.506;13.462;2022-08-03T09:41:44;2.50;;;2.30;;
8462;SDS011;4268;52.506;13.462;2022-08-03T09:44:12;2.55;;;2.35;;
8462;SDS011;4268;52.506;13.462;2022-08-03T09:46:51;2.42;;;2.22;;
8462;SDS011;4268;52.506;13.462;2022-08-03T09:49:19;2.17;;;2.08;;
8462;SDS011;4268;52.506;13.462;2022-08-03T09:51:45;2.70;;;2.40;;
8462;SDS011;4268;52.506;13.462;2022-08-03T09:54:10;2.97;;;2.70;;
8462;SDS011;4268;52.506;13.462;2022-08-03T09:56:39;2.67;;;2.47;;
8462;SDS011;4268;52.506;13.462;2022-08-03T09:59:12;2.90;;;2.50;;
8462;SDS011;4268;52.506;13.462;2022-08-03T10:01:46;2.38;;;2.22;;
8462;SDS011;4268;52.506;13.462;2022-08-03T10:04:12;2.22;;;2.13;;
8462;SDS011;4268;52.506;13.462;2022-08-03T10:06:41;2.80;;;2.58;;
8462;SDS011;4268;52.506;13.462;2022-08-03T10:09:10;2.80;;;2.60;;
8462;SDS011;4268;52.506;13.462;2022-08-03T10:11:37;2.78;;;2.40;;
8462;SDS011;4268;52.506;13.462;2022-08-03T10:14:06;3.75;;;2.50;;
8462;SDS011;4268;52.506;13.462;2022-08-03T10:16:35;2.20;;;2.10;;
8462;SDS011;4268;52.506;13.462;2022-08-03T10:19:04;4.25;;;2.50;;
8462;SDS011;4268;52.506;13.462;2022-08-03T10:21:32;2.17;;;2.08;;
8462;SDS011;4268;52.506;13.462;2022-08-03T10:24:06;2.83;;;2.20;;
8462;SDS011;4268;52.506;13.462;2022-08-03T10:26:35;2.22;;;2.13;;
8462;SDS011;4268;52.506;13.462;2022-08-03T10:29:05;2.55;;;2.35;;
8462;SDS011;4268;52.506;13.462;2022-08-03T10:31:37;2.20;;;2.10;;
8462;SDS011;4268;52.506;13.462;2022-08-03T10:34:05;2.20;;;2.10;;
8462;SDS011;4268;52.506;13.462;2022-08-03T10:36:38;2.50;;;2.30;;
8462;SDS011;4268;52.506;13.462;2022-08-03T10:39:05;3.42;;;2.55;;
8462;SDS011;4268;52.506;13.462;2022-08-03T10:41:31;2.10;;;2.00;;
8462;SDS011;4268;52.506;13.462;2022-08-03T10:44:02;2.15;;;2.05;;
8462;SDS011;4268;52.506;13.462;2022-08-03T10:46:35;2.60;;;2.40;;
8462;SDS011;4268;52.506;13.462;2022-08-03T10:49:02;2.40;;;2.30;;
8462;SDS011;4268;52.506;13.462;2022-08-03T10:51:30;2.20;;;2.10;;
8462;SDS011;4268;52.506;13.462;2022-08-03T10:53:57;2.60;;;2.40;;
8462;SDS011;4268;52.506;13.462;2022-08-03T10:56:44;2.85;;;2.38;;
8462;SDS011;4268;52.506;13.462;2022-08-03T11:02:14;2.13;;;2.03;;
8462;SDS011;4268;52.506;13.462;2022-08-03T11:04:40;2.28;;;2.08;;
8462;SDS011;4268;52.506;13.462;2022-08-03T11:09:45;2.22;;;2.13;;
8462;SDS011;4268;52.506;13.462;2022-08-03T11:14:47;2.40;;;2.13;;
8462;SDS011;4268;52.506;13.462;2022-08-03T11:17:13;2.25;;;2.05;;
8462;SDS011;4268;52.506;13.462;2022-08-03T11:19:51;1.95;;;1.85;;
8462;SDS011;4268;52.506;13.462;2022-08-03T11:22:18;2.55;;;2.03;;
8462;SDS011;4268;52.506;13.462;2022-08-03T11:29:53;2.20;;;2.10;;
8462;SDS011;4268;52.506;13.462;2022-08-03T11:48:33;2.15;;;2.05;;
8462;SDS011;4268;52.506;13.462;2022-08-03T11:51:03;2.20;;;2.10;;
8462;SDS011;4268;52.506;13.462;2022-08-03T11:53:30;2.55;;;2.35;;
8462;SDS011;4268;52.506;13.462;2022-08-03T11:56:00;3.58;;;2.25;;
8462;SDS011;4268;52.506;13.462;2022-08-03T11:58:26;2.60;;;2.20;;
8462;SDS011;4268;52.506;13.462;2022-08-03T12:00:55;2.40;;;2.30;;
8462;SDS011;4268;52.506;13.462;2022-08-03T12:03:31;2.50;;;2.30;;
8462;SDS011;4268;52.506;13.462;2022-08-03T12:05:57;2.40;;;2.20;;
8462;SDS011;4268;52.506;13.462;2022-08-03T12:10:51;2.40;;;2.30;;
8462;SDS011;4268;52.506;13.462;2022-08-03T12:13:18;2.30;;;2.20;;
8462;SDS011;4268;52.506;13.462;2022-08-03T12:15:49;2.10;;;2.00;;
8462;SDS011;4268;52.506;13.462;2022-08-03T12:18:17;2.67;;;2.08;;
8462;SDS011;4268;52.506;13.462;2022-08-03T12:20:44;3.55;;;2.35;;
8462;SDS011;4268;52.506;13.462;2022-08-03T12:23:11;2.05;;;1.95;;
8462;SDS011;4268;52.506;13.462;2022-08-03T12:25:37;3.33;;;2.20;;
8462;SDS011;4268;52.506;13.462;2022-08-03T12:28:08;3.17;;;2.10;;
8462;SDS011;4268;52.506;13.462;2022-08-03T12:30:35;2.40;;;2.30;;
8462;SDS011;4268;52.506;13.462;2022-08-03T12:33:15;2.78;;;2.10;;
8462;SDS011;4268;52.506;13.462;2022-08-03T12:36:03;2.50;;;2.25;;
8462;SDS011;4268;52.506;13.462;2022-08-03T12:38:35;3.90;;;2.47;;
8462;SDS011;4268;52.506;13.462;2022-08-03T12:41:07;2.95;;;2.40;;
8462;SDS011;4268;52.506;13.462;2022-08-03T12:43:48;2.60;;;2.40;;
8462;SDS011;4268;52.506;13.462;2022-08-03T12:46:15;2.38;;;2.17;;
8462;SDS011;4268;52.506;13.462;2022-08-03T12:51:27;2.22;;;2.13;;
8462;SDS011;4268;52.506;13.462;2022-08-03T12:53:55;2.97;;;2.70;;
8462;SDS011;4268;52.506;13.462;2022-08-03T12:56:22;3.33;;;2.25;;
8462;SDS011;4268;52.506;13.462;2022-08-03T12:58:47;3.15;;;2.10;;
8462;SDS011;4268;52.506;13.462;2022-08-03T13:01:14;4.40;;;2.28;;
8462;SDS011;4268;52.506;13.462;2022-08-03T13:03:41;2.40;;;2.20;;
8462;SDS011;4268;52.506;13.462;2022-08-03T13:06:14;2.58;;;2.47;;
8462;SDS011;4268;52.506;13.462;2022-08-03T13:08:41;2.47;;;2.15;;
8462;SDS011;4268;52.506;13.462;2022-08-03T13:11:21;2.30;;;2.08;;
8462;SDS011;4268;52.506;13.462;2022-08-03T13:13:49;2.17;;;2.00;;
8462;SDS011;4268;52.506;13.462;2022-08-03T13:16:19;2.08;;;1.98;;
8462;SDS011;4268;52.506;13.462;2022-08-03T13:18:46;2.30;;;2.08;;
8462;SDS011;4268;52.506;13.462;2022-08-03T13:21:15;3.25;;;2.30;;
8462;SDS011;4268;52.506;13.462;2022-08-03T13:23:41;2.10;;;2.00;;
8462;SDS011;4268;52.506;13.462;2022-08-03T13:26:07;2.17;;;1.98;;
8462;SDS011;4268;52.506;13.462;2022-08-03T13:28:33;2.85;;;2.10;;
8462;SDS011;4268;52.506;13.462;2022-08-03T13:30:59;2.55;;;2.15;;
8462;SDS011;4268;52.506;13.462;2022-08-03T13:33:25;2.63;;;2.42;;
8462;SDS011;4268;52.506;13.462;2022-08-03T13:35:52;16.20;;;4.10;;
8462;SDS011;4268;52.506;13.462;2022-08-03T13:38:18;13.30;;;5.90;;
8462;SDS011;4268;52.506;13.462;2022-08-03T13:40:43;3.40;;;2.92;;
8462;SDS011;4268;52.506;13.462;2022-08-03T13:43:09;3.20;;;2.55;;
8462;SDS011;4268;52.506;13.462;2022-08-03T13:45:34;3.25;;;3.05;;
8462;SDS011;4268;52.506;13.462;2022-08-03T13:48:00;3.10;;;2.58;;
8462;SDS011;4268;52.506;13.462;2022-08-03T13:50:26;2.53;;;2.42;;
8462;SDS011;4268;52.506;13.462;2022-08-03T13:52:51;2.58;;;2.30;;
8462;SDS011;4268;52.506;13.462;2022-08-03T13:55:17;6.32;;;3.50;;
8462;SDS011;4268;52.506;13.462;2022-08-03T13:57:42;3.25;;;2.40;;
8462;SDS011;4268;52.506;13.462;2022-08-03T14:00:08;3.03;;;2.33;;
8462;SDS011;4268;52.506;13.462;2022-08-03T14:02:34;2.78;;;2.50;;
8462;SDS011;4268;52.506;13.462;2022-08-03T14:04:59;2.85;;;2.60;;
8462;SDS011;4268;52.506;13.462;2022-08-03T14:07:25;2.28;;;2.17;;
8462;SDS011;4268;52.506;13.462;2022-08-03T14:09:50;2.70;;;2.50;;
8462;SDS011;4268;52.506;13.462;2022-08-03T14:12:16;2.20;;;2.10;;
8462;SDS011;4268;52.506;13.462;2022-08-03T14:14:41;3.58;;;2.38;;
8462;SDS011;4268;52.506;13.462;2022-08-03T14:17:07;2.55;;;2.30;;
8462;SDS011;4268;52.506;13.462;2022-08-03T14:19:32;2.50;;;2.30;;
8462;SDS011;4268;52.506;13.462;2022-08-03T14:21:58;2.50;;;2.30;;
8462;SDS011;4268;52.506;13.462;2022-08-03T14:24:24;5.53;;;2.50;;
8462;SDS011;4268;52.506;13.462;2022-08-03T14:26:49;2.90;;;2.58;;
8462;SDS011;4268;52.506;13.462;2022-08-03T14:29:15;2.67;;;2.50;;
8462;SDS011;4268;52.506;13.462;2022-08-03T14:31:40;3.95;;;2.88;;
8462;SDS011;4268;52.506;13.462;2022-08-03T14:34:06;2.88;;;2.38;;
8462;SDS011;4268;52.506;13.462;2022-08-03T14:36:31;2.88;;;2.67;;
8462;SDS011;4268;52.506;13.462;2022-08-03T14:38:57;3.90;;;2.50;;
8462;SDS011;4268;52.506;13.462;2022-08-03T14:41:22;3.95;;;2.50;;
8462;SDS011;4268;52.506;13.462;2022-08-03T14:43:48;3.28;;;2.30;;
8462;SDS011;4268;52.506;13.462;2022-08-03T14:46:13;3.63;;;2.45;;
8462;SDS011;4268;52.506;13.462;2022-08-03T14:48:39;2.40;;;2.20;;
8462;SDS011;4268;52.506;13.462;2022-08-03T14:51:04;2.40;;;2.20;;
8462;SDS011;4268;52.506;13.462;2022-08-03T14:53:30;2.63;;;2.42;;
8462;SDS011;4268;52.506;13.462;2022-08-03T14:55:56;2.20;;;2.10;;
8462;SDS011;4268;52.506;13.462;2022-08-03T14:58:21;2.33;;;2.22;;
8462;SDS011;4268;52.506;13.462;2022-08-03T15:00:49;3.75;;;2.20;;
8462;SDS011;4268;52.506;13.462;2022-08-03T15:03:15;3.10;;;2.40;;
8462;SDS011;4268;52.506;13.462;2022-08-03T15:05:44;2.53;;;2.33;;
8462;SDS011;4268;52.506;13.462;2022-08-03T15:08:09;2.53;;;2.42;;
8462;SDS011;4268;52.506;13.462;2022-08-03T15:10:35;2.20;;;2.10;;
8462;SDS011;4268;52.506;13.462;2022-08-03T15:13:01;2.10;;;2.00;;
8462;SDS011;4268;52.506;13.462;2022-08-03T15:15:26;2.10;;;2.00;;
8462;SDS011;4268;52.506;13.462;2022-08-03T15:17:52;2.60;;;2.40;;
8462;SDS011;4268;52.506;13.462;2022-08-03T15:20:17;4.80;;;3.00;;
8462;SDS011;4268;52.506;13.462;2022-08-03T15:22:43;2.60;;;2.38;;
8462;SDS011;4268;52.506;13.462;2022-08-03T15:25:09;2.60;;;2.40;;
8462;SDS011;4268;52.506;13.462;2022-08-03T15:27:35;2.30;;;2.20;;
8462;SDS011;4268;52.506;13.462;2022-08-03T15:30:00;2.20;;;2.10;;
8462;SDS011;4268;52.506;13.462;2022-08-03T15:32:30;2.50;;;2.40;;
8462;SDS011;4268;52.506;13.462;2022-08-03T15:34:57;2.33;;;2.22;;
8462;SDS011;4268;52.506;13.462;2022-08-03T15:37:22;2.20;;;2.10;;
8462;SDS011;4268;52.506;13.462;2022-08-03T15:39:49;2.05;;;1.95;;
8462;SDS011;4268;52.506;13.462;2022-08-03T15:42:14;2.40;;;2.30;;
8462;SDS011;4268;52.506;13.462;2022-08-03T15:44:40;2.50;;;2.40;;
8462;SDS011;4268;52.506;13.462;2022-08-03T15:47:05;2.58;;;2.38;;